sensor_id;sensor_type;location;lat;lon;timestamp;P1;durP1;ratioP1;P2;durP2;ratioP2
72235;SDS011;60146;52.498;13.462;2023-03-23T00:01:11;2.33;;;1.60;;
72235;SDS011;60146;52.498;13.462;2023-03-23T00:03:38;3.77;;;1.93;;
72235;SDS011;60146;52.498;13.462;2023-03-23T00:06:04;2.70;;;1.53;;
72235;SDS011;60146;52.498;13.462;2023-03-23T00:08:32;2.67;;;1.80;;
72235;SDS011;60146;52.498;13.462;2023-03-23T00:10:58;2.83;;;1.60;;
72235;SDS011;60146;52.498;13.462;2023-03-23T00:13:27;3.47;;;1.73;;
72235;SDS011;60146;52.498;13.462;2023-03-23T00:15:53;3.53;;;1.60;;
72235;SDS011;60146;52.498;13.462;2023-03-23T00:18:22;4.10;;;2.03;;
72235;SDS011;60146;52.498;13.462;2023-03-23T00:20:51;4.60;;;1.47;;
72235;SDS011;60146;52.498;13.462;2023-03-23T00:23:19;3.00;;;1.60;;
72235;SDS011;60146;52.498;13.462;2023-03-23T00:25:48;2.37;;;1.57;;
72235;SDS011;60146;52.498;13.462;2023-03-23T00:28:15;2.00;;;1.43;;
72235;SDS011;60146;52.498;13.462;2023-03-23T00:30:41;6.80;;;1.80;;
72235;SDS011;60146;52.498;13.462;2023-03-23T00:33:08;2.83;;;1.67;;
72235;SDS011;60146;52.498;13.462;2023-03-23T00:35:33;4.17;;;2.10;;
72235;SDS011;60146;52.498;13.462;2023-03-23T00:38:01;2.73;;;1.40;;
72235;SDS011;60146;52.498;13.462;2023-03-23T00:40:27;3.50;;;1.90;;
72235;SDS011;60146;52.498;13.462;2023-03-23T00:42:52;3.93;;;1.63;;
72235;SDS011;60146;52.498;13.462;2023-03-23T00:45:17;4.93;;;1.80;;
72235;SDS011;60146;52.498;13.462;2023-03-23T00:47:43;3.37;;;1.50;;
72235;SDS011;60146;52.498;13.462;2023-03-23T00:50:11;2.97;;;1.63;;
72235;SDS011;60146;52.498;13.462;2023-03-23T00:52:38;2.93;;;1.70;;
72235;SDS011;60146;52.498;13.462;2023-03-23T00:55:04;3.57;;;1.87;;
72235;SDS011;60146;52.498;13.462;2023-03-23T00:57:31;3.83;;;1.63;;
72235;SDS011;60146;52.498;13.462;2023-03-23T00:59:56;3.57;;;1.63;;
72235;SDS011;60146;52.498;13.462;2023-03-23T01:02:22;2.07;;;1.40;;
72235;SDS011;60146;52.498;13.462;2023-03-23T01:04:50;2.93;;;1.50;;
72235;SDS011;60146;52.498;13.462;2023-03-23T01:07:17;2.73;;;2.00;;
72235;SDS011;60146;52.498;13.462;2023-03-23T01:09:43;3.13;;;1.50;;
72235;SDS011;60146;52.498;13.462;2023-03-23T01:12:09;4.97;;;1.87;;
72235;SDS011;60146;52.498;13.462;2023-03-23T01:14:35;6.07;;;2.10;;
72235;SDS011;60146;52.498;13.462;2023-03-23T01:17:01;4.70;;;1.70;;
72235;SDS011;60146;52.498;13.462;2023-03-23T01:19:26;3.13;;;1.40;;
72235;SDS011;60146;52.498;13.462;2023-03-23T01:21:51;2.20;;;1.60;;
72235;SDS011;60146;52.498;13.462;2023-03-23T01:24:17;1.70;;;1.40;;
72235;SDS011;60146;52.498;13.462;2023-03-23T01:26:42;3.13;;;1.77;;
72235;SDS011;60146;52.498;13.462;2023-03-23T01:29:07;2.93;;;1.57;;
72235;SDS011;60146;52.498;13.462;2023-03-23T01:31:33;5.37;;;1.57;;
72235;SDS011;60146;52.498;13.462;2023-03-23T01:34:01;2.27;;;1.43;;
72235;SDS011;60146;52.498;13.462;2023-03-23T01:36:27;5.20;;;1.90;;
72235;SDS011;60146;52.498;13.462;2023-03-23T01:38:53;2.87;;;1.50;;
72235;SDS011;60146;52.498;13.462;2023-03-23T01:41:20;7.17;;;1.90;;
72235;SDS011;60146;52.498;13.462;2023-03-23T01:44:00;2.87;;;1.60;;
72235;SDS011;60146;52.498;13.462;2023-03-23T01:46:29;2.33;;;1.63;;
72235;SDS011;60146;52.498;13.462;2023-03-23T01:48:56;3.87;;;1.57;;
72235;SDS011;60146;52.498;13.462;2023-03-23T01:51:25;3.17;;;1.80;;
72235;SDS011;60146;52.498;13.462;2023-03-23T01:56:21;2.23;;;1.77;;
72235;SDS011;60146;52.498;13.462;2023-03-23T01:58:50;6.73;;;1.90;;
72235;SDS011;60146;52.498;13.462;2023-03-23T02:01:17;2.37;;;1.40;;
72235;SDS011;60146;52.498;13.462;2023-03-23T02:03:44;4.03;;;1.67;;
72235;SDS011;60146;52.498;13.462;2023-03-23T02:06:11;3.93;;;1.67;;
72235;SDS011;60146;52.498;13.462;2023-03-23T02:08:37;3.10;;;1.80;;
72235;SDS011;60146;52.498;13.462;2023-03-23T02:11:12;3.43;;;1.60;;
72235;SDS011;60146;52.498;13.462;2023-03-23T02:13:40;3.47;;;1.90;;
72235;SDS011;60146;52.498;13.462;2023-03-23T02:18:54;2.65;;;1.70;;
72235;SDS011;60146;52.498;13.462;2023-03-23T02:24:17;2.67;;;1.57;;
72235;SDS011;60146;52.498;13.462;2023-03-23T02:27:02;2.73;;;1.43;;
72235;SDS011;60146;52.498;13.462;2023-03-23T02:29:52;2.27;;;1.47;;
72235;SDS011;60146;52.498;13.462;2023-03-23T02:35:32;3.23;;;1.70;;
72235;SDS011;60146;52.498;13.462;2023-03-23T02:38:01;4.07;;;1.53;;
72235;SDS011;60146;52.498;13.462;2023-03-23T02:40:41;3.83;;;1.70;;
72235;SDS011;60146;52.498;13.462;2023-03-23T02:43:10;2.57;;;1.57;;
72235;SDS011;60146;52.498;13.462;2023-03-23T02:48:05;4.00;;;1.53;;
72235;SDS011;60146;52.498;13.462;2023-03-23T02:50:33;3.03;;;1.70;;
72235;SDS011;60146;52.498;13.462;2023-03-23T02:53:00;2.53;;;1.83;;
72235;SDS011;60146;52.498;13.462;2023-03-23T02:55:27;4.07;;;1.70;;
72235;SDS011;60146;52.498;13.462;2023-03-23T02:57:55;3.43;;;1.90;;
72235;SDS011;60146;52.498;13.462;2023-03-23T03:00:21;4.17;;;1.70;;
72235;SDS011;60146;52.498;13.462;2023-03-23T03:02:48;3.53;;;1.60;;
72235;SDS011;60146;52.498;13.462;2023-03-23T03:05:23;2.70;;;1.63;;
72235;SDS011;60146;52.498;13.462;2023-03-23T03:10:26;3.27;;;1.70;;
72235;SDS011;60146;52.498;13.462;2023-03-23T03:13:20;4.18;;;1.92;;
72235;SDS011;60146;52.498;13.462;2023-03-23T03:18:25;4.93;;;2.20;;
72235;SDS011;60146;52.498;13.462;2023-03-23T03:20:56;2.00;;;1.57;;
72235;SDS011;60146;52.498;13.462;2023-03-23T03:23:26;2.37;;;1.60;;
72235;SDS011;60146;52.498;13.462;2023-03-23T03:25:53;4.60;;;2.33;;
72235;SDS011;60146;52.498;13.462;2023-03-23T03:28:22;3.20;;;1.87;;
72235;SDS011;60146;52.498;13.462;2023-03-23T03:30:51;3.80;;;1.90;;
72235;SDS011;60146;52.498;13.462;2023-03-23T03:33:20;3.23;;;1.70;;
72235;SDS011;60146;52.498;13.462;2023-03-23T03:35:50;4.32;;;1.80;;
72235;SDS011;60146;52.498;13.462;2023-03-23T03:38:18;3.80;;;1.83;;
72235;SDS011;60146;52.498;13.462;2023-03-23T03:40:43;5.47;;;1.80;;
72235;SDS011;60146;52.498;13.462;2023-03-23T03:43:08;3.40;;;1.83;;
72235;SDS011;60146;52.498;13.462;2023-03-23T03:45:34;2.50;;;1.80;;
72235;SDS011;60146;52.498;13.462;2023-03-23T03:47:59;2.80;;;1.70;;
72235;SDS011;60146;52.498;13.462;2023-03-23T03:50:26;2.97;;;1.87;;
72235;SDS011;60146;52.498;13.462;2023-03-23T03:52:51;3.07;;;1.70;;
72235;SDS011;60146;52.498;13.462;2023-03-23T03:55:17;2.97;;;1.77;;
72235;SDS011;60146;52.498;13.462;2023-03-23T03:57:43;2.73;;;1.63;;
72235;SDS011;60146;52.498;13.462;2023-03-23T04:00:08;3.40;;;1.50;;
72235;SDS011;60146;52.498;13.462;2023-03-23T04:02:44;4.73;;;1.83;;
72235;SDS011;60146;52.498;13.462;2023-03-23T04:05:18;2.77;;;1.60;;
72235;SDS011;60146;52.498;13.462;2023-03-23T04:07:45;2.60;;;1.40;;
72235;SDS011;60146;52.498;13.462;2023-03-23T04:10:14;4.57;;;1.60;;
72235;SDS011;60146;52.498;13.462;2023-03-23T04:12:39;3.13;;;1.70;;
72235;SDS011;60146;52.498;13.462;2023-03-23T04:15:05;2.43;;;1.60;;
72235;SDS011;60146;52.498;13.462;2023-03-23T04:17:32;2.47;;;1.57;;
72235;SDS011;60146;52.498;13.462;2023-03-23T04:19:58;2.40;;;1.63;;
72235;SDS011;60146;52.498;13.462;2023-03-23T04:22:25;3.17;;;1.70;;
72235;SDS011;60146;52.498;13.462;2023-03-23T04:24:55;2.20;;;1.48;;
72235;SDS011;60146;52.498;13.462;2023-03-23T04:27:23;3.43;;;1.57;;
72235;SDS011;60146;52.498;13.462;2023-03-23T04:29:49;3.27;;;1.70;;
72235;SDS011;60146;52.498;13.462;2023-03-23T04:32:15;4.40;;;1.80;;
72235;SDS011;60146;52.498;13.462;2023-03-23T04:34:42;3.00;;;1.83;;
72235;SDS011;60146;52.498;13.462;2023-03-23T04:37:08;1.90;;;1.30;;
72235;SDS011;60146;52.498;13.462;2023-03-23T04:39:33;4.07;;;1.40;;
72235;SDS011;60146;52.498;13.462;2023-03-23T04:41:59;6.37;;;2.10;;
72235;SDS011;60146;52.498;13.462;2023-03-23T04:44:26;3.43;;;1.60;;
72235;SDS011;60146;52.498;13.462;2023-03-23T04:46:52;4.23;;;1.83;;
72235;SDS011;60146;52.498;13.462;2023-03-23T04:49:19;2.60;;;1.70;;
72235;SDS011;60146;52.498;13.462;2023-03-23T04:51:46;4.30;;;1.70;;
72235;SDS011;60146;52.498;13.462;2023-03-23T04:54:12;3.73;;;2.00;;
72235;SDS011;60146;52.498;13.462;2023-03-23T04:56:37;2.80;;;1.70;;
72235;SDS011;60146;52.498;13.462;2023-03-23T04:59:03;3.00;;;1.83;;
72235;SDS011;60146;52.498;13.462;2023-03-23T05:01:28;2.60;;;1.80;;
72235;SDS011;60146;52.498;13.462;2023-03-23T05:03:54;2.97;;;1.90;;
72235;SDS011;60146;52.498;13.462;2023-03-23T05:06:19;3.60;;;1.70;;
72235;SDS011;60146;52.498;13.462;2023-03-23T05:08:45;3.83;;;2.20;;
72235;SDS011;60146;52.498;13.462;2023-03-23T05:11:10;3.50;;;1.73;;
72235;SDS011;60146;52.498;13.462;2023-03-23T05:13:37;4.33;;;1.77;;
72235;SDS011;60146;52.498;13.462;2023-03-23T05:16:03;4.17;;;1.90;;
72235;SDS011;60146;52.498;13.462;2023-03-23T05:18:29;3.00;;;1.90;;
72235;SDS011;60146;52.498;13.462;2023-03-23T05:20:54;3.17;;;2.00;;
72235;SDS011;60146;52.498;13.462;2023-03-23T05:23:20;3.20;;;2.03;;
72235;SDS011;60146;52.498;13.462;2023-03-23T05:25:52;3.70;;;1.80;;
72235;SDS011;60146;52.498;13.462;2023-03-23T05:28:20;3.10;;;1.90;;
72235;SDS011;60146;52.498;13.462;2023-03-23T05:30:47;3.40;;;1.70;;
72235;SDS011;60146;52.498;13.462;2023-03-23T05:33:13;3.90;;;1.83;;
72235;SDS011;60146;52.498;13.462;2023-03-23T05:35:38;2.63;;;1.70;;
72235;SDS011;60146;52.498;13.462;2023-03-23T05:38:04;3.60;;;2.00;;
72235;SDS011;60146;52.498;13.462;2023-03-23T05:40:29;3.57;;;1.70;;
72235;SDS011;60146;52.498;13.462;2023-03-23T05:42:55;3.93;;;1.70;;
72235;SDS011;60146;52.498;13.462;2023-03-23T05:45:23;3.67;;;1.43;;
72235;SDS011;60146;52.498;13.462;2023-03-23T05:47:49;3.27;;;1.70;;
72235;SDS011;60146;52.498;13.462;2023-03-23T05:50:15;5.80;;;1.87;;
72235;SDS011;60146;52.498;13.462;2023-03-23T05:52:41;3.50;;;1.47;;
72235;SDS011;60146;52.498;13.462;2023-03-23T05:55:07;2.73;;;1.70;;
72235;SDS011;60146;52.498;13.462;2023-03-23T05:57:33;3.97;;;1.53;;
72235;SDS011;60146;52.498;13.462;2023-03-23T05:59:59;2.80;;;1.67;;
72235;SDS011;60146;52.498;13.462;2023-03-23T06:02:25;3.00;;;1.30;;
72235;SDS011;60146;52.498;13.462;2023-03-23T06:04:53;4.37;;;1.60;;
72235;SDS011;60146;52.498;13.462;2023-03-23T06:07:22;1.80;;;1.50;;
72235;SDS011;60146;52.498;13.462;2023-03-23T06:09:51;3.67;;;1.53;;
72235;SDS011;60146;52.498;13.462;2023-03-23T06:12:17;5.27;;;2.17;;
72235;SDS011;60146;52.498;13.462;2023-03-23T06:14:45;4.23;;;1.40;;
72235;SDS011;60146;52.498;13.462;2023-03-23T06:17:12;4.13;;;1.50;;
72235;SDS011;60146;52.498;13.462;2023-03-23T06:19:38;1.77;;;1.40;;
72235;SDS011;60146;52.498;13.462;2023-03-23T06:22:03;3.57;;;1.60;;
72235;SDS011;60146;52.498;13.462;2023-03-23T06:24:30;1.77;;;1.30;;
72235;SDS011;60146;52.498;13.462;2023-03-23T06:26:55;2.67;;;1.30;;
72235;SDS011;60146;52.498;13.462;2023-03-23T06:29:21;2.63;;;1.53;;
72235;SDS011;60146;52.498;13.462;2023-03-23T06:31:47;4.40;;;1.57;;
72235;SDS011;60146;52.498;13.462;2023-03-23T06:34:14;2.40;;;1.50;;
72235;SDS011;60146;52.498;13.462;2023-03-23T06:36:40;2.57;;;1.20;;
72235;SDS011;60146;52.498;13.462;2023-03-23T06:39:05;3.03;;;1.47;;
72235;SDS011;60146;52.498;13.462;2023-03-23T06:41:31;3.77;;;1.63;;
72235;SDS011;60146;52.498;13.462;2023-03-23T06:43:58;4.13;;;1.60;;
72235;SDS011;60146;52.498;13.462;2023-03-23T06:46:23;4.43;;;1.40;;
72235;SDS011;60146;52.498;13.462;2023-03-23T06:48:49;4.93;;;1.60;;
72235;SDS011;60146;52.498;13.462;2023-03-23T06:51:15;2.83;;;1.70;;
72235;SDS011;60146;52.498;13.462;2023-03-23T06:53:41;2.93;;;1.40;;
72235;SDS011;60146;52.498;13.462;2023-03-23T06:56:07;7.70;;;1.80;;
72235;SDS011;60146;52.498;13.462;2023-03-23T06:58:32;2.10;;;1.30;;
72235;SDS011;60146;52.498;13.462;2023-03-23T07:00:58;2.57;;;1.50;;
72235;SDS011;60146;52.498;13.462;2023-03-23T07:03:24;5.73;;;1.87;;
72235;SDS011;60146;52.498;13.462;2023-03-23T07:05:51;3.93;;;1.70;;
72235;SDS011;60146;52.498;13.462;2023-03-23T07:08:16;3.67;;;1.80;;
72235;SDS011;60146;52.498;13.462;2023-03-23T07:10:42;4.83;;;1.83;;
72235;SDS011;60146;52.498;13.462;2023-03-23T07:13:07;3.50;;;1.33;;
72235;SDS011;60146;52.498;13.462;2023-03-23T07:15:32;5.40;;;2.30;;
72235;SDS011;60146;52.498;13.462;2023-03-23T07:17:58;2.97;;;1.70;;
72235;SDS011;60146;52.498;13.462;2023-03-23T07:20:24;8.37;;;1.90;;
72235;SDS011;60146;52.498;13.462;2023-03-23T07:22:49;3.13;;;1.60;;
72235;SDS011;60146;52.498;13.462;2023-03-23T07:25:15;4.63;;;1.70;;
72235;SDS011;60146;52.498;13.462;2023-03-23T07:27:41;3.53;;;2.10;;
72235;SDS011;60146;52.498;13.462;2023-03-23T07:30:07;2.73;;;1.57;;
72235;SDS011;60146;52.498;13.462;2023-03-23T07:32:33;4.80;;;1.70;;
72235;SDS011;60146;52.498;13.462;2023-03-23T07:34:58;6.53;;;1.97;;
72235;SDS011;60146;52.498;13.462;2023-03-23T07:37:23;6.07;;;1.60;;
72235;SDS011;60146;52.498;13.462;2023-03-23T07:39:49;5.73;;;1.73;;
72235;SDS011;60146;52.498;13.462;2023-03-23T07:42:14;7.13;;;2.00;;
72235;SDS011;60146;52.498;13.462;2023-03-23T07:44:40;4.07;;;2.03;;
72235;SDS011;60146;52.498;13.462;2023-03-23T07:47:05;5.00;;;1.70;;
72235;SDS011;60146;52.498;13.462;2023-03-23T07:49:31;3.27;;;1.93;;
72235;SDS011;60146;52.498;13.462;2023-03-23T07:51:57;2.60;;;1.67;;
72235;SDS011;60146;52.498;13.462;2023-03-23T07:54:22;3.77;;;1.80;;
72235;SDS011;60146;52.498;13.462;2023-03-23T07:56:48;5.20;;;2.00;;
72235;SDS011;60146;52.498;13.462;2023-03-23T07:59:14;3.33;;;1.77;;
72235;SDS011;60146;52.498;13.462;2023-03-23T08:01:40;4.47;;;2.00;;
72235;SDS011;60146;52.498;13.462;2023-03-23T08:04:06;5.00;;;1.97;;
72235;SDS011;60146;52.498;13.462;2023-03-23T08:06:32;4.33;;;2.00;;
72235;SDS011;60146;52.498;13.462;2023-03-23T08:08:59;4.33;;;1.83;;
72235;SDS011;60146;52.498;13.462;2023-03-23T08:11:25;3.97;;;2.00;;
72235;SDS011;60146;52.498;13.462;2023-03-23T08:13:51;3.13;;;1.50;;
72235;SDS011;60146;52.498;13.462;2023-03-23T08:16:18;2.50;;;1.63;;
72235;SDS011;60146;52.498;13.462;2023-03-23T08:18:44;3.83;;;1.67;;
72235;SDS011;60146;52.498;13.462;2023-03-23T08:21:11;3.53;;;1.90;;
72235;SDS011;60146;52.498;13.462;2023-03-23T08:23:37;3.70;;;1.90;;
72235;SDS011;60146;52.498;13.462;2023-03-23T08:26:06;4.60;;;1.83;;
72235;SDS011;60146;52.498;13.462;2023-03-23T08:28:35;3.73;;;1.73;;
72235;SDS011;60146;52.498;13.462;2023-03-23T08:31:08;2.97;;;1.60;;
72235;SDS011;60146;52.498;13.462;2023-03-23T08:33:36;3.10;;;1.63;;
72235;SDS011;60146;52.498;13.462;2023-03-23T08:36:02;2.67;;;1.70;;
72235;SDS011;60146;52.498;13.462;2023-03-23T08:38:28;4.77;;;2.00;;
72235;SDS011;60146;52.498;13.462;2023-03-23T08:41:00;5.10;;;2.20;;
72235;SDS011;60146;52.498;13.462;2023-03-23T08:43:28;6.23;;;2.10;;
72235;SDS011;60146;52.498;13.462;2023-03-23T08:45:54;2.90;;;1.60;;
72235;SDS011;60146;52.498;13.462;2023-03-23T08:48:20;4.07;;;1.83;;
72235;SDS011;60146;52.498;13.462;2023-03-23T08:50:46;2.53;;;1.50;;
72235;SDS011;60146;52.498;13.462;2023-03-23T08:53:13;1.97;;;1.30;;
72235;SDS011;60146;52.498;13.462;2023-03-23T08:55:38;3.93;;;2.00;;
72235;SDS011;60146;52.498;13.462;2023-03-23T08:58:05;2.33;;;1.50;;
72235;SDS011;60146;52.498;13.462;2023-03-23T09:00:30;4.13;;;1.60;;
72235;SDS011;60146;52.498;13.462;2023-03-23T09:02:57;6.23;;;1.80;;
72235;SDS011;60146;52.498;13.462;2023-03-23T09:05:23;2.67;;;1.53;;
72235;SDS011;60146;52.498;13.462;2023-03-23T09:07:51;2.27;;;1.40;;
72235;SDS011;60146;52.498;13.462;2023-03-23T09:10:18;2.93;;;1.40;;
72235;SDS011;60146;52.498;13.462;2023-03-23T09:12:44;3.37;;;1.50;;
72235;SDS011;60146;52.498;13.462;2023-03-23T09:15:11;3.77;;;1.50;;
72235;SDS011;60146;52.498;13.462;2023-03-23T09:17:39;2.03;;;1.47;;
72235;SDS011;60146;52.498;13.462;2023-03-23T09:20:13;2.53;;;1.30;;
72235;SDS011;60146;52.498;13.462;2023-03-23T09:22:42;3.87;;;1.67;;
72235;SDS011;60146;52.498;13.462;2023-03-23T09:25:09;2.53;;;1.53;;
72235;SDS011;60146;52.498;13.462;2023-03-23T09:27:36;2.87;;;1.50;;
72235;SDS011;60146;52.498;13.462;2023-03-23T09:30:03;3.73;;;1.30;;
72235;SDS011;60146;52.498;13.462;2023-03-23T09:32:32;6.57;;;1.52;;
72235;SDS011;60146;52.498;13.462;2023-03-23T09:35:00;2.67;;;1.30;;
72235;SDS011;60146;52.498;13.462;2023-03-23T09:37:27;2.90;;;1.30;;
72235;SDS011;60146;52.498;13.462;2023-03-23T09:39:53;4.40;;;1.20;;
72235;SDS011;60146;52.498;13.462;2023-03-23T09:45:10;2.17;;;1.15;;
72235;SDS011;60146;52.498;13.462;2023-03-23T09:50:29;1.57;;;1.20;;
72235;SDS011;60146;52.498;13.462;2023-03-23T09:52:59;2.40;;;1.10;;
72235;SDS011;60146;52.498;13.462;2023-03-23T09:55:27;3.45;;;1.30;;
72235;SDS011;60146;52.498;13.462;2023-03-23T09:57:58;1.57;;;1.03;;
72235;SDS011;60146;52.498;13.462;2023-03-23T10:08:13;3.47;;;1.07;;
72235;SDS011;60146;52.498;13.462;2023-03-23T10:16:13;2.20;;;1.30;;
72235;SDS011;60146;52.498;13.462;2023-03-23T10:21:37;3.23;;;1.30;;
72235;SDS011;60146;52.498;13.462;2023-03-23T10:24:10;1.63;;;0.80;;
72235;SDS011;60146;52.498;13.462;2023-03-23T10:29:36;5.07;;;1.00;;
72235;SDS011;60146;52.498;13.462;2023-03-23T10:32:12;1.50;;;1.10;;
72235;SDS011;60146;52.498;13.462;2023-03-23T10:34:44;2.50;;;0.90;;
72235;SDS011;60146;52.498;13.462;2023-03-23T10:37:21;1.73;;;1.10;;
72235;SDS011;60146;52.498;13.462;2023-03-23T10:39:54;2.63;;;0.97;;
72235;SDS011;60146;52.498;13.462;2023-03-23T10:42:22;5.40;;;1.40;;
72235;SDS011;60146;52.498;13.462;2023-03-23T10:44:53;1.70;;;1.00;;
72235;SDS011;60146;52.498;13.462;2023-03-23T10:47:21;4.83;;;1.10;;
72235;SDS011;60146;52.498;13.462;2023-03-23T10:49:48;1.40;;;0.83;;
72235;SDS011;60146;52.498;13.462;2023-03-23T10:52:26;1.40;;;0.90;;
72235;SDS011;60146;52.498;13.462;2023-03-23T10:55:01;5.03;;;1.30;;
72235;SDS011;60146;52.498;13.462;2023-03-23T10:57:31;3.23;;;2.03;;
72235;SDS011;60146;52.498;13.462;2023-03-23T10:59:59;2.57;;;1.00;;
72235;SDS011;60146;52.498;13.462;2023-03-23T11:02:30;3.43;;;0.90;;
72235;SDS011;60146;52.498;13.462;2023-03-23T11:04:59;2.10;;;1.20;;
72235;SDS011;60146;52.498;13.462;2023-03-23T11:07:33;1.77;;;1.00;;
72235;SDS011;60146;52.498;13.462;2023-03-23T11:10:05;4.97;;;1.10;;
72235;SDS011;60146;52.498;13.462;2023-03-23T11:12:34;1.77;;;0.90;;
72235;SDS011;60146;52.498;13.462;2023-03-23T11:15:42;2.33;;;1.10;;
72235;SDS011;60146;52.498;13.462;2023-03-23T11:17:56;3.03;;;1.10;;
72235;SDS011;60146;52.498;13.462;2023-03-23T11:20:36;2.10;;;1.47;;
72235;SDS011;60146;52.498;13.462;2023-03-23T11:23:38;1.20;;;0.90;;
72235;SDS011;60146;52.498;13.462;2023-03-23T11:28:55;1.50;;;1.00;;
72235;SDS011;60146;52.498;13.462;2023-03-23T11:31:24;6.37;;;1.40;;
72235;SDS011;60146;52.498;13.462;2023-03-23T11:34:03;1.93;;;1.00;;
72235;SDS011;60146;52.498;13.462;2023-03-23T11:36:36;2.00;;;1.00;;
72235;SDS011;60146;52.498;13.462;2023-03-23T11:39:18;2.20;;;1.17;;
72235;SDS011;60146;52.498;13.462;2023-03-23T11:41:46;1.50;;;1.10;;
72235;SDS011;60146;52.498;13.462;2023-03-23T11:44:12;2.67;;;1.37;;
72235;SDS011;60146;52.498;13.462;2023-03-23T11:47:00;2.17;;;1.10;;
72235;SDS011;60146;52.498;13.462;2023-03-23T11:55:18;4.00;;;1.43;;
72235;SDS011;60146;52.498;13.462;2023-03-23T11:57:47;2.43;;;1.17;;
72235;SDS011;60146;52.498;13.462;2023-03-23T12:00:14;1.77;;;0.93;;
72235;SDS011;60146;52.498;13.462;2023-03-23T12:02:49;1.30;;;1.00;;
72235;SDS011;60146;52.498;13.462;2023-03-23T12:21:58;3.37;;;1.43;;
72235;SDS011;60146;52.498;13.462;2023-03-23T12:30:03;3.47;;;1.30;;
72235;SDS011;60146;52.498;13.462;2023-03-23T12:32:57;1.67;;;1.00;;
72235;SDS011;60146;52.498;13.462;2023-03-23T12:35:34;2.87;;;1.20;;
72235;SDS011;60146;52.498;13.462;2023-03-23T12:38:27;3.50;;;1.10;;
72235;SDS011;60146;52.498;13.462;2023-03-23T12:41:05;2.80;;;1.13;;
72235;SDS011;60146;52.498;13.462;2023-03-23T12:43:51;3.30;;;1.20;;
72235;SDS011;60146;52.498;13.462;2023-03-23T12:51:44;2.33;;;1.13;;
72235;SDS011;60146;52.498;13.462;2023-03-23T12:54:14;3.13;;;1.40;;
72235;SDS011;60146;52.498;13.462;2023-03-23T13:01:43;1.70;;;1.20;;
72235;SDS011;60146;52.498;13.462;2023-03-23T13:07:06;3.70;;;1.03;;
72235;SDS011;60146;52.498;13.462;2023-03-23T13:09:45;3.33;;;1.20;;
72235;SDS011;60146;52.498;13.462;2023-03-23T13:12:16;2.92;;;1.17;;
72235;SDS011;60146;52.498;13.462;2023-03-23T13:15:03;1.75;;;1.10;;
72235;SDS011;60146;52.498;13.462;2023-03-23T13:17:48;2.55;;;1.15;;
72235;SDS011;60146;52.498;13.462;2023-03-23T13:23:26;1.95;;;0.80;;
72235;SDS011;60146;52.498;13.462;2023-03-23T13:26:03;3.67;;;1.35;;
72235;SDS011;60146;52.498;13.462;2023-03-23T13:31:20;3.08;;;1.20;;
72235;SDS011;60146;52.498;13.462;2023-03-23T13:33:58;3.80;;;1.10;;
72235;SDS011;60146;52.498;13.462;2023-03-23T13:36:43;2.90;;;1.20;;
72235;SDS011;60146;52.498;13.462;2023-03-23T13:39:21;2.70;;;1.30;;
72235;SDS011;60146;52.498;13.462;2023-03-23T13:50:31;3.53;;;1.23;;
72235;SDS011;60146;52.498;13.462;2023-03-23T14:03:04;3.53;;;1.10;;
72235;SDS011;60146;52.498;13.462;2023-03-23T14:16:14;1.77;;;1.00;;
72235;SDS011;60146;52.498;13.462;2023-03-23T14:18:55;2.97;;;1.25;;
72235;SDS011;60146;52.498;13.462;2023-03-23T14:24:11;2.53;;;0.93;;
72235;SDS011;60146;52.498;13.462;2023-03-23T14:26:40;3.75;;;1.00;;
72235;SDS011;60146;52.498;13.462;2023-03-23T14:29:09;1.95;;;0.88;;
72235;SDS011;60146;52.498;13.462;2023-03-23T14:31:35;2.08;;;0.90;;
72235;SDS011;60146;52.498;13.462;2023-03-23T14:34:04;2.35;;;0.93;;
72235;SDS011;60146;52.498;13.462;2023-03-23T14:36:38;0.98;;;0.88;;
72235;SDS011;60146;52.498;13.462;2023-03-23T14:39:07;2.97;;;1.02;;
72235;SDS011;60146;52.498;13.462;2023-03-23T14:41:41;2.43;;;1.10;;
72235;SDS011;60146;52.498;13.462;2023-03-23T14:44:08;3.07;;;1.20;;
72235;SDS011;60146;52.498;13.462;2023-03-23T14:46:39;3.67;;;1.23;;
72235;SDS011;60146;52.498;13.462;2023-03-23T14:49:07;2.33;;;0.97;;
72235;SDS011;60146;52.498;13.462;2023-03-23T14:51:32;3.13;;;1.40;;
72235;SDS011;60146;52.498;13.462;2023-03-23T14:53:59;2.87;;;0.93;;
72235;SDS011;60146;52.498;13.462;2023-03-23T14:56:31;3.37;;;1.20;;
72235;SDS011;60146;52.498;13.462;2023-03-23T14:59:02;2.13;;;1.10;;
72235;SDS011;60146;52.498;13.462;2023-03-23T15:01:30;2.00;;;1.20;;
72235;SDS011;60146;52.498;13.462;2023-03-23T15:03:59;2.57;;;1.30;;
72235;SDS011;60146;52.498;13.462;2023-03-23T15:06:37;3.20;;;1.33;;
72235;SDS011;60146;52.498;13.462;2023-03-23T15:09:09;6.40;;;2.90;;
72235;SDS011;60146;52.498;13.462;2023-03-23T15:11:38;1.70;;;1.10;;
72235;SDS011;60146;52.498;13.462;2023-03-23T15:16:50;2.33;;;1.27;;
72235;SDS011;60146;52.498;13.462;2023-03-23T15:19:40;4.33;;;1.30;;
72235;SDS011;60146;52.498;13.462;2023-03-23T15:22:29;2.38;;;1.25;;
72235;SDS011;60146;52.498;13.462;2023-03-23T15:27:33;2.50;;;1.37;;
72235;SDS011;60146;52.498;13.462;2023-03-23T15:32:47;1.63;;;1.10;;
72235;SDS011;60146;52.498;13.462;2023-03-23T15:35:20;2.85;;;1.20;;
72235;SDS011;60146;52.498;13.462;2023-03-23T15:38:32;1.77;;;1.02;;
72235;SDS011;60146;52.498;13.462;2023-03-23T15:41:00;2.17;;;1.10;;
72235;SDS011;60146;52.498;13.462;2023-03-23T15:43:48;3.73;;;1.30;;
72235;SDS011;60146;52.498;13.462;2023-03-23T15:48:48;3.00;;;1.10;;
72235;SDS011;60146;52.498;13.462;2023-03-23T15:51:19;2.27;;;1.03;;
72235;SDS011;60146;52.498;13.462;2023-03-23T15:53:45;1.77;;;0.90;;
72235;SDS011;60146;52.498;13.462;2023-03-23T15:56:11;1.83;;;1.00;;
72235;SDS011;60146;52.498;13.462;2023-03-23T15:58:38;1.63;;;1.13;;
72235;SDS011;60146;52.498;13.462;2023-03-23T16:01:14;3.27;;;1.10;;
72235;SDS011;60146;52.498;13.462;2023-03-23T16:03:43;3.27;;;1.30;;
72235;SDS011;60146;52.498;13.462;2023-03-23T16:06:12;1.97;;;1.10;;
72235;SDS011;60146;52.498;13.462;2023-03-23T16:08:40;1.90;;;0.90;;
72235;SDS011;60146;52.498;13.462;2023-03-23T16:11:09;2.27;;;0.80;;
72235;SDS011;60146;52.498;13.462;2023-03-23T16:13:36;2.47;;;0.93;;
72235;SDS011;60146;52.498;13.462;2023-03-23T16:16:03;1.50;;;0.90;;
72235;SDS011;60146;52.498;13.462;2023-03-23T16:18:29;3.50;;;1.13;;
72235;SDS011;60146;52.498;13.462;2023-03-23T16:20:55;3.23;;;1.10;;
72235;SDS011;60146;52.498;13.462;2023-03-23T16:23:21;4.60;;;1.53;;
72235;SDS011;60146;52.498;13.462;2023-03-23T16:25:46;3.40;;;1.03;;
72235;SDS011;60146;52.498;13.462;2023-03-23T16:28:12;2.27;;;1.40;;
72235;SDS011;60146;52.498;13.462;2023-03-23T16:30:39;3.33;;;1.17;;
72235;SDS011;60146;52.498;13.462;2023-03-23T16:33:05;3.47;;;1.23;;
72235;SDS011;60146;52.498;13.462;2023-03-23T16:35:31;2.30;;;0.90;;
72235;SDS011;60146;52.498;13.462;2023-03-23T16:37:56;1.87;;;0.90;;
72235;SDS011;60146;52.498;13.462;2023-03-23T16:40:22;2.27;;;1.00;;
72235;SDS011;60146;52.498;13.462;2023-03-23T16:42:48;1.93;;;1.10;;
72235;SDS011;60146;52.498;13.462;2023-03-23T16:45:15;2.97;;;0.90;;
72235;SDS011;60146;52.498;13.462;2023-03-23T16:47:41;2.57;;;1.20;;
72235;SDS011;60146;52.498;13.462;2023-03-23T16:50:08;4.57;;;1.20;;
72235;SDS011;60146;52.498;13.462;2023-03-23T16:52:36;3.57;;;1.20;;
72235;SDS011;60146;52.498;13.462;2023-03-23T16:55:05;3.50;;;1.38;;
72235;SDS011;60146;52.498;13.462;2023-03-23T16:57:32;4.77;;;1.37;;
72235;SDS011;60146;52.498;13.462;2023-03-23T17:00:00;3.43;;;1.20;;